createdAt,value
2017-08-26T00:00:28.024Z,9.50
2017-08-26T00:03:02.010Z,10.43
2017-08-26T00:05:30.310Z,9.47
2017-08-26T00:07:59.886Z,10.00
2017-08-26T00:10:28.546Z,10.13
2017-08-26T00:12:56.546Z,9.47
2017-08-26T00:15:24.566Z,11.10
2017-08-26T00:17:53.459Z,9.10
2017-08-26T00:20:22.925Z,10.10
2017-08-26T00:22:51.331Z,10.40
2017-08-26T00:25:19.813Z,9.67
2017-08-26T00:27:48.222Z,9.93
2017-08-26T00:30:16.310Z,9.50
2017-08-26T00:32:44.454Z,10.20
2017-08-26T00:35:12.604Z,9.10
2017-08-26T00:37:40.658Z,9.10
2017-08-26T00:40:08.870Z,10.87
2017-08-26T00:42:37.837Z,9.80
2017-08-26T00:45:05.873Z,10.23
2017-08-26T00:47:33.974Z,10.67
2017-08-26T00:50:02.375Z,8.40
2017-08-26T00:52:31.046Z,9.93
2017-08-26T00:54:59.179Z,9.27
2017-08-26T00:57:27.234Z,10.03
2017-08-26T00:59:56.154Z,9.67
2017-08-26T01:02:24.778Z,11.37
2017-08-26T01:04:52.986Z,9.67
2017-08-26T01:07:27.302Z,11.63
2017-08-26T01:09:55.686Z,11.30
2017-08-26T01:12:24.454Z,9.87
2017-08-26T01:14:53.382Z,10.87
2017-08-26T01:17:21.602Z,10.97
2017-08-26T01:19:49.876Z,11.93
2017-08-26T01:22:18.438Z,11.30
2017-08-26T01:24:46.466Z,11.70
2017-08-26T01:27:14.686Z,12.33
2017-08-26T01:29:43.358Z,9.80
2017-08-26T01:32:11.722Z,10.23
2017-08-26T01:34:40.055Z,10.50
2017-08-26T01:37:08.338Z,9.50
2017-08-26T01:39:38.162Z,8.97
2017-08-26T01:42:06.314Z,9.23
2017-08-26T01:44:36.557Z,9.17
2017-08-26T01:47:04.934Z,8.90
2017-08-26T01:49:33.266Z,10.07
2017-08-26T01:52:03.097Z,9.13
2017-08-26T01:54:31.650Z,10.30
2017-08-26T01:57:00.680Z,8.50
2017-08-26T01:59:29.598Z,7.90
2017-08-26T02:01:57.807Z,8.30
2017-08-26T02:04:26.279Z,9.23
2017-08-26T02:06:55.445Z,8.10
2017-08-26T02:09:25.710Z,9.40
2017-08-26T02:11:54.126Z,10.00
2017-08-26T02:14:22.954Z,9.03
2017-08-26T02:16:51.874Z,8.67
2017-08-26T02:19:20.394Z,8.70
2017-08-26T02:21:49.859Z,11.07
2017-08-26T02:24:18.074Z,10.13
2017-08-26T02:26:46.103Z,9.60
2017-08-26T02:29:15.243Z,9.63
2017-08-26T02:31:44.342Z,9.20
2017-08-26T02:34:13.026Z,9.23
2017-08-26T02:36:42.234Z,9.87
2017-08-26T02:39:10.430Z,9.03
2017-08-26T02:41:38.798Z,10.60
2017-08-26T02:44:08.095Z,9.70
2017-08-26T02:46:37.059Z,10.90
2017-08-26T02:49:05.545Z,10.00
2017-08-26T02:51:34.226Z,10.60
2017-08-26T02:54:02.379Z,10.57
2017-08-26T02:56:31.710Z,10.33
2017-08-26T02:59:00.357Z,9.00
2017-08-26T03:01:30.186Z,8.93
2017-08-26T03:03:58.773Z,10.37
2017-08-26T03:06:27.309Z,9.70
2017-08-26T03:08:56.897Z,9.27
2017-08-26T03:11:25.265Z,9.70
2017-08-26T03:13:53.930Z,10.00
2017-08-26T03:16:22.457Z,9.60
2017-08-26T03:18:51.842Z,9.40
2017-08-26T03:21:20.660Z,8.70
2017-08-26T03:23:49.765Z,9.63
2017-08-26T03:26:19.348Z,9.90
2017-08-26T03:28:48.987Z,9.13
2017-08-26T03:31:17.787Z,9.60
2017-08-26T03:33:46.490Z,9.30
2017-08-26T03:36:15.318Z,8.67
2017-08-26T03:38:43.674Z,8.43
2017-08-26T03:41:12.359Z,9.17
2017-08-26T03:43:41.019Z,8.50
2017-08-26T03:46:09.479Z,7.10
2017-08-26T03:48:38.182Z,9.23
2017-08-26T03:51:06.800Z,9.10
2017-08-26T03:53:35.514Z,8.40
2017-08-26T03:56:04.106Z,8.77
2017-08-26T03:58:32.130Z,6.90
2017-08-26T04:01:00.142Z,7.50
2017-08-26T04:03:28.943Z,8.10
2017-08-26T04:05:58.482Z,6.30
2017-08-26T04:08:28.825Z,6.97
2017-08-26T04:10:56.839Z,7.13
2017-08-26T04:13:25.461Z,7.20
2017-08-26T04:15:54.277Z,5.87
2017-08-26T04:18:22.897Z,8.00
2017-08-26T04:20:51.590Z,7.03
2017-08-26T04:23:21.231Z,7.80
2017-08-26T04:25:49.342Z,8.40
2017-08-26T04:28:17.358Z,8.13
2017-08-26T04:30:45.914Z,8.53
2017-08-26T04:33:14.014Z,8.90
2017-08-26T04:35:43.251Z,8.57
2017-08-26T04:38:11.914Z,8.27
2017-08-26T04:40:40.338Z,7.93
2017-08-26T04:43:08.991Z,9.30
2017-08-26T04:45:38.617Z,8.23
2017-08-26T04:48:07.213Z,8.43
2017-08-26T04:50:36.066Z,8.17
2017-08-26T04:53:04.682Z,8.47
2017-08-26T04:55:33.498Z,8.50
2017-08-26T04:58:02.129Z,8.37
2017-08-26T05:00:30.962Z,9.20
2017-08-26T05:02:59.580Z,10.67
2017-08-26T05:05:28.719Z,11.47
2017-08-26T05:07:57.674Z,11.93
2017-08-26T05:10:26.698Z,12.10
2017-08-26T05:12:54.824Z,12.87
2017-08-26T05:15:23.491Z,12.83
2017-08-26T05:17:51.675Z,14.10
2017-08-26T05:20:20.226Z,13.87
2017-08-26T05:22:48.870Z,14.07
2017-08-26T05:25:17.366Z,15.70
2017-08-26T05:27:45.382Z,11.73
2017-08-26T05:30:13.393Z,13.07
2017-08-26T05:32:42.122Z,14.73
2017-08-26T05:35:10.142Z,15.17
2017-08-26T05:37:38.179Z,14.70
2017-08-26T05:40:09.760Z,14.90
2017-08-26T05:42:38.229Z,13.70
2017-08-26T05:45:06.730Z,12.70
2017-08-26T05:47:35.378Z,11.80
2017-08-26T05:50:03.893Z,10.88
2017-08-26T05:52:31.979Z,12.45
2017-08-26T05:55:01.210Z,10.23
2017-08-26T05:57:30.018Z,9.83
2017-08-26T05:59:58.057Z,10.80
2017-08-26T06:02:26.717Z,10.17
2017-08-26T06:04:54.758Z,9.63
2017-08-26T06:07:23.166Z,9.97
2017-08-26T06:09:51.826Z,10.80
2017-08-26T06:12:20.466Z,10.67
2017-08-26T06:14:48.966Z,9.07
2017-08-26T06:17:17.577Z,9.77
2017-08-26T06:19:46.154Z,9.17
2017-08-26T06:22:14.834Z,8.87
2017-08-26T06:24:43.509Z,9.10
2017-08-26T06:27:11.537Z,9.10
2017-08-26T06:29:39.558Z,9.27
2017-08-26T06:32:07.742Z,8.77
2017-08-26T06:34:35.765Z,9.82
2017-08-26T06:37:03.787Z,8.43
2017-08-26T06:39:31.930Z,8.88
2017-08-26T06:41:59.942Z,8.75
2017-08-26T06:44:27.949Z,8.20
2017-08-26T06:46:56.126Z,9.27
2017-08-26T06:49:24.224Z,9.18
2017-08-26T06:51:52.346Z,8.97
2017-08-26T06:54:20.514Z,8.23
2017-08-26T06:56:48.575Z,7.93
2017-08-26T06:59:16.597Z,8.00
2017-08-26T07:01:44.698Z,9.10
2017-08-26T07:04:12.710Z,7.30
2017-08-26T07:06:40.734Z,7.43
2017-08-26T07:09:08.858Z,7.13
2017-08-26T07:11:36.981Z,8.10
2017-08-26T07:14:04.998Z,7.60
2017-08-26T07:16:34.243Z,8.43
2017-08-26T07:19:03.585Z,7.63
2017-08-26T07:21:31.946Z,7.23
2017-08-26T07:24:01.476Z,7.00
2017-08-26T07:26:29.653Z,6.83
2017-08-26T07:28:57.978Z,7.37
2017-08-26T07:31:26.647Z,7.43
2017-08-26T07:33:55.450Z,7.53
2017-08-26T07:36:23.469Z,7.97
2017-08-26T07:38:52.379Z,7.55
2017-08-26T07:41:20.993Z,8.32
2017-08-26T07:43:49.712Z,8.25
2017-08-26T07:46:18.310Z,9.05
2017-08-26T07:48:46.922Z,8.57
2017-08-26T07:51:15.669Z,8.57
2017-08-26T07:53:44.589Z,9.40
2017-08-26T07:56:13.058Z,8.90
2017-08-26T07:58:41.082Z,8.48
2017-08-26T08:01:09.832Z,8.90
2017-08-26T08:03:38.007Z,9.45
2017-08-26T08:06:06.770Z,8.73
2017-08-26T08:08:35.254Z,6.80
2017-08-26T08:11:03.679Z,7.43
2017-08-26T08:13:31.696Z,5.77
2017-08-26T08:16:00.334Z,6.70
2017-08-26T08:18:29.020Z,6.50
2017-08-26T08:20:57.770Z,6.07
2017-08-26T08:23:26.245Z,6.83
2017-08-26T08:25:54.696Z,6.10
2017-08-26T08:28:22.710Z,6.97
2017-08-26T08:30:51.567Z,6.10
2017-08-26T08:33:20.154Z,5.33
2017-08-26T08:35:48.874Z,5.80
2017-08-26T08:38:18.154Z,6.30
2017-08-26T08:40:46.182Z,5.80
2017-08-26T08:43:14.690Z,6.60
2017-08-26T08:45:42.800Z,6.23
2017-08-26T08:48:11.238Z,6.20
2017-08-26T08:50:39.871Z,5.90
2017-08-26T08:53:08.526Z,6.07
2017-08-26T08:55:36.662Z,5.60
2017-08-26T08:58:05.654Z,6.20
2017-08-26T09:00:33.857Z,5.80
2017-08-26T09:03:01.903Z,6.03
2017-08-26T09:05:29.940Z,6.50
2017-08-26T09:07:58.124Z,6.00
2017-08-26T09:10:26.170Z,7.30
2017-08-26T09:12:54.194Z,6.60
2017-08-26T09:15:22.386Z,6.90
2017-08-26T09:17:50.399Z,6.20
2017-08-26T09:20:18.958Z,6.80
2017-08-26T09:22:47.194Z,6.20
2017-08-26T09:25:15.233Z,6.50
2017-08-26T09:27:44.002Z,6.20
2017-08-26T09:30:12.138Z,6.37
2017-08-26T09:32:40.142Z,6.17
2017-08-26T09:35:08.162Z,5.40
2017-08-26T09:37:36.274Z,5.93
2017-08-26T09:40:04.290Z,6.00
2017-08-26T09:42:32.311Z,6.43
2017-08-26T09:45:00.663Z,5.80
2017-08-26T09:47:29.194Z,6.00
2017-08-26T09:49:57.812Z,6.47
2017-08-26T09:52:26.394Z,6.20
2017-08-26T09:54:54.941Z,6.83
2017-08-26T09:57:23.667Z,5.83
2017-08-26T09:59:51.795Z,5.40
2017-08-26T10:02:20.482Z,6.73
2017-08-26T10:04:49.455Z,6.73
2017-08-26T10:07:18.314Z,6.07
2017-08-26T10:09:46.334Z,5.97
2017-08-26T10:12:14.919Z,7.10
2017-08-26T10:14:43.130Z,7.13
2017-08-26T10:17:11.699Z,6.00
2017-08-26T10:19:40.974Z,6.87
2017-08-26T10:22:09.792Z,7.00
2017-08-26T10:24:38.435Z,7.43
2017-08-26T10:27:06.998Z,6.97
2017-08-26T10:29:35.643Z,6.90
2017-08-26T10:32:04.302Z,6.87
2017-08-26T10:34:33.083Z,7.23
2017-08-26T10:37:01.904Z,7.63
2017-08-26T10:39:30.498Z,7.83
2017-08-26T10:41:59.194Z,8.10
2017-08-26T10:44:28.178Z,8.40
2017-08-26T10:46:56.186Z,7.40
2017-08-26T10:49:24.807Z,8.70
2017-08-26T10:51:53.827Z,7.07
2017-08-26T10:54:22.491Z,9.00
2017-08-26T10:56:51.146Z,7.40
2017-08-26T10:59:19.581Z,8.17
2017-08-26T11:01:47.590Z,7.63
2017-08-26T11:04:16.148Z,8.47
2017-08-26T11:06:44.967Z,7.67
2017-08-26T11:09:13.518Z,8.37
2017-08-26T11:11:42.070Z,7.73
2017-08-26T11:14:10.858Z,8.40
2017-08-26T11:16:39.610Z,8.33
2017-08-26T11:19:08.978Z,7.10
2017-08-26T11:21:37.135Z,7.90
2017-08-26T11:24:05.643Z,8.03
2017-08-26T11:26:33.662Z,7.70
2017-08-26T11:29:02.406Z,8.00
2017-08-26T11:31:30.982Z,7.73
2017-08-26T11:33:59.630Z,8.00
2017-08-26T11:36:28.284Z,7.90
2017-08-26T11:38:56.825Z,7.40
2017-08-26T11:41:25.499Z,8.63
2017-08-26T11:43:54.090Z,9.03
2017-08-26T11:46:22.673Z,9.30
2017-08-26T11:48:51.419Z,7.60
2017-08-26T11:51:19.906Z,7.47
2017-08-26T11:53:47.943Z,9.07
2017-08-26T11:56:16.586Z,8.10
2017-08-26T11:58:45.142Z,8.60
2017-08-26T12:01:13.693Z,8.53
2017-08-26T12:03:41.722Z,7.67
2017-08-26T12:06:10.430Z,8.37
2017-08-26T12:08:38.974Z,8.20
2017-08-26T12:11:07.365Z,8.43
2017-08-26T12:13:35.588Z,8.37
2017-08-26T12:16:03.631Z,7.87
2017-08-26T12:18:31.650Z,8.97
2017-08-26T12:20:59.822Z,8.40
2017-08-26T12:23:27.851Z,7.93
2017-08-26T12:25:55.878Z,8.20
2017-08-26T12:28:24.799Z,7.83
2017-08-26T12:30:53.305Z,9.07
2017-08-26T12:33:22.202Z,8.50
2017-08-26T12:35:50.914Z,8.80
2017-08-26T12:38:19.927Z,8.63
2017-08-26T12:40:48.651Z,9.10
2017-08-26T12:43:17.214Z,8.43
2017-08-26T12:45:45.670Z,8.17
2017-08-26T12:48:14.310Z,11.13
2017-08-26T12:50:42.422Z,10.53
2017-08-26T12:53:11.046Z,8.10
2017-08-26T12:55:39.390Z,8.77
2017-08-26T12:58:07.970Z,8.97
2017-08-26T13:00:36.158Z,9.17
2017-08-26T13:03:04.718Z,7.47
2017-08-26T13:05:33.493Z,8.97
2017-08-26T13:08:02.246Z,7.60
2017-08-26T13:10:30.266Z,8.60
2017-08-26T13:12:59.042Z,8.67
2017-08-26T13:15:27.793Z,9.43
2017-08-26T13:17:55.843Z,9.47
2017-08-26T13:20:24.728Z,8.70
2017-08-26T13:22:53.476Z,8.93
2017-08-26T13:25:21.956Z,8.30
2017-08-26T13:27:50.686Z,9.40
2017-08-26T13:30:19.445Z,8.57
2017-08-26T13:32:48.026Z,9.53
2017-08-26T13:35:16.883Z,8.70
2017-08-26T13:37:44.910Z,10.43
2017-08-26T13:40:12.927Z,9.47
2017-08-26T13:42:41.445Z,9.77
2017-08-26T13:45:10.260Z,9.93
2017-08-26T13:47:38.986Z,8.97
2017-08-26T13:50:07.506Z,8.80
2017-08-26T13:52:36.093Z,9.17
2017-08-26T13:55:04.678Z,9.90
2017-08-26T13:57:33.532Z,10.20
2017-08-26T14:00:01.550Z,10.20
2017-08-26T14:02:30.154Z,10.03
2017-08-26T14:04:58.407Z,11.30
2017-08-26T14:07:26.994Z,11.00
2017-08-26T14:09:55.023Z,11.73
2017-08-26T14:12:24.700Z,12.60
2017-08-26T14:14:53.352Z,10.90
2017-08-26T14:17:21.766Z,11.77
2017-08-26T14:19:50.526Z,10.70
2017-08-26T14:22:19.111Z,9.90
2017-08-26T14:24:47.685Z,11.07
2017-08-26T14:27:16.347Z,10.57
2017-08-26T14:29:44.870Z,9.97
2017-08-26T14:32:12.889Z,10.63
2017-08-26T14:34:41.626Z,11.10
2017-08-26T14:37:10.240Z,11.03
2017-08-26T14:39:38.958Z,10.97
2017-08-26T14:42:07.482Z,11.40
2017-08-26T14:44:36.102Z,11.90
2017-08-26T14:47:04.678Z,11.60
2017-08-26T14:49:34.003Z,15.10
2017-08-26T14:52:02.701Z,13.47
2017-08-26T14:54:31.970Z,13.83
2017-08-26T14:57:00.122Z,12.63
2017-08-26T14:59:28.708Z,13.20
2017-08-26T15:01:57.422Z,11.90
2017-08-26T15:04:26.148Z,13.13
2017-08-26T15:06:54.545Z,13.63
2017-08-26T15:09:22.575Z,12.93
2017-08-26T15:11:51.222Z,12.30
2017-08-26T15:14:19.710Z,11.53
2017-08-26T15:16:48.314Z,11.03
2017-08-26T15:19:16.839Z,13.40
2017-08-26T15:21:46.309Z,13.50
2017-08-26T15:24:14.794Z,12.07
2017-08-26T15:26:42.997Z,11.90
2017-08-26T15:29:11.499Z,12.00
2017-08-26T15:31:39.522Z,12.20
2017-08-26T15:34:08.090Z,12.83
2017-08-26T15:36:36.138Z,12.80
2017-08-26T15:39:05.102Z,11.77
2017-08-26T15:41:34.136Z,13.63
2017-08-26T15:44:02.924Z,11.37
2017-08-26T15:46:31.381Z,12.03
2017-08-26T15:49:00.203Z,12.73
2017-08-26T15:51:28.810Z,12.23
2017-08-26T15:53:57.573Z,12.93
2017-08-26T15:56:26.428Z,13.10
2017-08-26T15:58:54.823Z,11.80
2017-08-26T16:01:23.354Z,12.77
2017-08-26T16:03:51.523Z,13.00
2017-08-26T16:06:20.085Z,13.37
2017-08-26T16:08:48.571Z,13.30
2017-08-26T16:11:17.451Z,12.60
2017-08-26T16:13:45.500Z,11.90
2017-08-26T16:16:14.114Z,13.00
2017-08-26T16:18:42.271Z,11.43
2017-08-26T16:21:10.906Z,14.53
2017-08-26T16:23:40.414Z,13.07
2017-08-26T16:26:09.074Z,13.60
2017-08-26T16:28:37.758Z,12.03
2017-08-26T16:31:05.791Z,12.73
2017-08-26T16:33:34.346Z,12.63
2017-08-26T16:36:02.361Z,11.47
2017-08-26T16:38:30.399Z,12.23
2017-08-26T16:40:58.988Z,12.60
2017-08-26T16:43:27.530Z,13.03
2017-08-26T16:45:56.211Z,12.73
2017-08-26T16:48:24.358Z,12.23
2017-08-26T16:50:52.390Z,14.10
2017-08-26T16:53:21.686Z,13.70
2017-08-26T16:55:51.202Z,13.03
2017-08-26T16:58:19.717Z,13.33
2017-08-26T17:00:48.273Z,14.90
2017-08-26T17:03:17.130Z,14.67
2017-08-26T17:05:45.167Z,13.90
2017-08-26T17:08:13.682Z,14.47
2017-08-26T17:10:42.376Z,13.67
2017-08-26T17:13:11.055Z,14.13
2017-08-26T17:15:39.835Z,13.03
2017-08-26T17:18:08.350Z,13.53
2017-08-26T17:20:36.918Z,12.43
2017-08-26T17:23:05.607Z,14.20
2017-08-26T17:25:34.454Z,13.97
2017-08-26T17:28:02.477Z,14.67
2017-08-26T17:30:30.518Z,13.80
2017-08-26T17:32:59.259Z,14.17
2017-08-26T17:35:27.837Z,14.10
2017-08-26T17:37:55.882Z,14.77
2017-08-26T17:40:23.999Z,13.80
2017-08-26T17:42:52.424Z,12.90
2017-08-26T17:45:20.446Z,15.00
2017-08-26T17:47:49.466Z,14.30
2017-08-26T17:50:17.922Z,14.90
2017-08-26T17:52:46.498Z,13.60
2017-08-26T17:55:15.259Z,14.60
2017-08-26T17:57:44.042Z,13.20
2017-08-26T18:00:12.466Z,13.27
2017-08-26T18:02:41.086Z,14.77
2017-08-26T18:05:09.803Z,13.57
2017-08-26T18:07:37.866Z,14.70
2017-08-26T18:10:06.060Z,12.70
2017-08-26T18:12:34.666Z,14.73
2017-08-26T18:15:03.145Z,15.20
2017-08-26T18:17:32.015Z,14.83
2017-08-26T18:20:00.791Z,13.77
2017-08-26T18:22:28.830Z,14.00
2017-08-26T18:24:57.662Z,13.00
2017-08-26T18:27:26.063Z,14.67
2017-08-26T18:29:54.631Z,13.43
2017-08-26T18:32:23.441Z,13.13
2017-08-26T18:34:52.066Z,13.73
2017-08-26T18:37:20.478Z,13.60
2017-08-26T18:39:49.182Z,13.60
2017-08-26T18:42:17.655Z,14.70
2017-08-26T18:44:46.116Z,14.73
2017-08-26T18:47:14.829Z,13.57
2017-08-26T18:49:43.717Z,13.57
2017-08-26T18:52:11.726Z,13.50
2017-08-26T18:54:40.297Z,15.00
2017-08-26T18:57:08.882Z,14.60
2017-08-26T18:59:37.889Z,15.00
2017-08-26T19:02:07.507Z,15.80
2017-08-26T19:04:35.858Z,15.60
2017-08-26T19:07:04.330Z,14.97
2017-08-26T19:09:33.138Z,16.17
2017-08-26T19:12:01.758Z,16.10
2017-08-26T19:14:29.778Z,15.77
2017-08-26T19:16:58.594Z,16.53
2017-08-26T19:19:26.634Z,18.07
2017-08-26T19:21:55.246Z,17.43
2017-08-26T19:24:23.354Z,16.10
2017-08-26T19:26:51.375Z,17.87
2017-08-26T19:29:19.779Z,17.63
2017-08-26T19:31:48.430Z,17.47
2017-08-26T19:34:17.218Z,16.93
2017-08-26T19:36:45.234Z,17.80
2017-08-26T19:39:13.906Z,17.70
2017-08-26T19:41:41.915Z,18.97
2017-08-26T19:44:10.463Z,17.43
2017-08-26T19:46:39.287Z,18.70
2017-08-26T19:49:07.681Z,19.57
2017-08-26T19:51:36.189Z,19.10
2017-08-26T19:54:05.002Z,18.60
2017-08-26T19:56:33.394Z,18.93
2017-08-26T19:59:01.870Z,18.83
2017-08-26T20:14:17.066Z,19.90
2017-08-26T20:16:45.414Z,20.23
2017-08-26T20:19:13.495Z,20.87
2017-08-26T20:21:42.103Z,20.30
2017-08-26T20:24:10.758Z,20.47
2017-08-26T20:26:39.388Z,21.23
2017-08-26T20:29:07.866Z,20.67
2017-08-26T20:31:35.875Z,20.63
2017-08-26T20:34:04.328Z,19.97
2017-08-26T20:36:32.657Z,19.47
2017-08-26T20:39:01.279Z,20.00
2017-08-26T20:41:29.378Z,20.30
2017-08-26T20:43:58.242Z,20.00
2017-08-26T20:46:26.537Z,21.03
2017-08-26T20:48:55.070Z,21.97
2017-08-26T20:51:24.003Z,19.67
2017-08-26T20:53:52.029Z,21.43
2017-08-26T20:56:20.581Z,21.63
2017-08-26T20:58:49.382Z,21.83
2017-08-26T21:01:17.971Z,21.23
2017-08-26T21:03:46.110Z,21.40
2017-08-26T21:06:14.790Z,22.30
2017-08-26T21:08:43.210Z,23.00
2017-08-26T21:11:11.894Z,22.30
2017-08-26T21:13:40.347Z,23.33
2017-08-26T21:16:08.998Z,21.93
2017-08-26T21:18:37.610Z,21.63
2017-08-26T21:21:07.258Z,22.63
2017-08-26T21:23:35.751Z,22.23
2017-08-26T21:26:04.419Z,21.77
2017-08-26T21:28:33.213Z,22.90
2017-08-26T21:31:01.806Z,25.37
2017-08-26T21:33:30.390Z,25.27
2017-08-26T21:35:58.835Z,23.13
2017-08-26T21:38:27.278Z,25.27
2017-08-26T21:40:56.002Z,26.80
2017-08-26T21:43:24.828Z,25.40
2017-08-26T21:45:52.858Z,25.97
2017-08-26T21:48:21.478Z,25.80
2017-08-26T21:50:49.583Z,27.80
2017-08-26T21:53:18.311Z,26.73
2017-08-26T21:55:46.715Z,25.50
2017-08-26T21:58:15.518Z,25.40
2017-08-26T22:00:43.930Z,27.43
2017-08-26T22:03:12.414Z,26.90
2017-08-26T22:05:40.994Z,27.13
2017-08-26T22:08:09.862Z,25.63
2017-08-26T22:10:38.286Z,26.87
2017-08-26T22:13:06.828Z,27.47
2017-08-26T22:15:35.625Z,26.40
2017-08-26T22:18:04.297Z,27.07
2017-08-26T22:20:32.770Z,26.37
2017-08-26T22:23:01.298Z,27.67
2017-08-26T22:25:29.385Z,28.80
2017-08-26T22:27:57.389Z,29.07
2017-08-26T22:30:25.962Z,27.07
2017-08-26T22:32:54.510Z,27.90
2017-08-26T22:35:23.129Z,27.73
2017-08-26T22:37:51.714Z,27.67
2017-08-26T22:40:20.166Z,29.00
2017-08-26T22:42:48.818Z,28.37
2017-08-26T22:45:17.599Z,28.77
2017-08-26T22:47:46.070Z,30.13
2017-08-26T22:50:14.678Z,29.23
2017-08-26T22:52:43.395Z,29.40
2017-08-26T22:55:12.144Z,31.60
2017-08-26T22:57:40.665Z,30.70
2017-08-26T23:00:09.326Z,30.13
2017-08-26T23:02:37.970Z,32.70
2017-08-26T23:05:06.012Z,30.47
2017-08-26T23:07:34.803Z,30.33
2017-08-26T23:10:03.549Z,29.40
2017-08-26T23:12:32.079Z,29.40
2017-08-26T23:15:00.218Z,29.90
2017-08-26T23:17:28.639Z,30.30
2017-08-26T23:19:57.190Z,26.30
2017-08-26T23:22:25.869Z,27.43
2017-08-26T23:24:54.547Z,27.17
2017-08-26T23:27:22.970Z,27.40
2017-08-26T23:29:51.735Z,24.50
2017-08-26T23:32:20.415Z,23.63
2017-08-26T23:34:48.878Z,22.70
2017-08-26T23:37:17.586Z,21.87
2017-08-26T23:39:46.197Z,21.37
2017-08-26T23:42:14.949Z,21.77
2017-08-26T23:44:43.605Z,21.43
2017-08-26T23:47:12.134Z,21.80
2017-08-26T23:49:40.604Z,21.33
2017-08-26T23:52:09.262Z,20.83
2017-08-26T23:54:37.818Z,19.17
2017-08-26T23:57:06.533Z,20.53
2017-08-26T23:59:34.665Z,20.77
